createdAt,value
2022-09-23T00:01:15.094Z,8.20
2022-09-23T00:03:46.809Z,8.10
2022-09-23T00:06:17.498Z,6.53
2022-09-23T00:08:44.277Z,7.33
2022-09-23T00:11:17.164Z,5.57
2022-09-23T00:13:47.125Z,6.43
2022-09-23T00:16:17.438Z,8.90
2022-09-23T00:18:44.649Z,6.20
2022-09-23T00:21:13.753Z,8.10
2022-09-23T00:23:42.952Z,5.07
2022-09-23T00:26:13.365Z,5.67
2022-09-23T00:28:40.702Z,6.73
2022-09-23T00:31:10.479Z,5.40
2022-09-23T00:33:37.717Z,8.77
2022-09-23T00:36:08.005Z,5.50
2022-09-23T00:38:34.946Z,6.57
2022-09-23T00:41:03.089Z,7.23
2022-09-23T00:43:50.937Z,5.60
2022-09-23T00:46:22.701Z,7.63
2022-09-23T00:48:55.857Z,8.37
2022-09-23T00:51:28.130Z,5.90
2022-09-23T00:53:55.693Z,7.20
2022-09-23T00:56:24.358Z,6.83
2022-09-23T00:58:52.121Z,5.60
2022-09-23T01:01:19.673Z,6.30
2022-09-23T01:03:46.730Z,8.30
2022-09-23T01:06:14.810Z,8.40
2022-09-23T01:08:45.133Z,7.83
2022-09-23T01:11:37.364Z,5.57
2022-09-23T01:14:48.943Z,7.37
2022-09-23T01:17:41.947Z,6.80
2022-09-23T01:20:38.973Z,7.67
2022-09-23T01:23:38.845Z,7.27
2022-09-23T01:26:24.139Z,6.17
2022-09-23T01:29:09.241Z,8.83
2022-09-23T01:31:38.727Z,10.07
2022-09-23T01:34:18.043Z,6.97
2022-09-23T01:36:55.661Z,7.67
2022-09-23T01:39:26.649Z,9.20
2022-09-23T01:42:29.980Z,9.77
2022-09-23T01:45:03.885Z,9.53
2022-09-23T01:47:36.203Z,6.97
2022-09-23T01:50:30.879Z,8.87
2022-09-23T01:53:04.751Z,7.83
2022-09-23T01:55:35.601Z,8.23
2022-09-23T01:58:10.415Z,9.17
2022-09-23T02:00:42.799Z,9.37
2022-09-23T02:03:15.437Z,9.23
2022-09-23T02:05:51.830Z,8.03
2022-09-23T02:08:23.767Z,8.00
2022-09-23T02:10:56.651Z,11.97
2022-09-23T02:13:32.680Z,8.57
2022-09-23T02:16:06.582Z,9.23
2022-09-23T02:18:51.225Z,10.27
2022-09-23T02:21:19.864Z,10.90
2022-09-23T02:23:59.225Z,10.17
2022-09-23T02:26:51.321Z,9.67
2022-09-23T02:29:25.210Z,9.23
2022-09-23T02:32:08.462Z,8.00
2022-09-23T02:34:45.933Z,9.40
2022-09-23T02:37:21.607Z,8.83
2022-09-23T02:39:54.063Z,11.93
2022-09-23T02:42:25.098Z,8.63
2022-09-23T02:44:51.909Z,10.27
2022-09-23T02:47:24.161Z,10.27
2022-09-23T02:49:52.163Z,9.77
2022-09-23T02:52:19.149Z,10.83
2022-09-23T02:54:46.194Z,11.80
2022-09-23T02:57:14.593Z,10.10
2022-09-23T02:59:41.820Z,9.63
2022-09-23T03:02:17.645Z,10.60
2022-09-23T03:04:54.375Z,9.90
2022-09-23T03:07:33.263Z,9.00
2022-09-23T03:10:31.011Z,9.43
2022-09-23T03:13:31.323Z,11.13
2022-09-23T03:16:51.387Z,9.77
2022-09-23T03:19:27.511Z,11.00
2022-09-23T03:22:01.310Z,11.13
2022-09-23T03:24:31.832Z,17.03
2022-09-23T03:27:03.361Z,10.10
2022-09-23T03:29:32.716Z,11.73
2022-09-23T03:32:00.052Z,8.47
2022-09-23T03:34:30.930Z,9.87
2022-09-23T03:37:20.502Z,9.73
2022-09-23T03:40:13.378Z,10.03
2022-09-23T03:42:41.316Z,12.57
2022-09-23T03:45:14.632Z,9.53
2022-09-23T03:47:42.394Z,9.73
2022-09-23T03:50:09.583Z,9.73
2022-09-23T03:52:36.916Z,10.50
2022-09-23T03:55:04.091Z,10.00
2022-09-23T03:57:31.904Z,10.10
2022-09-23T03:59:58.739Z,9.57
2022-09-23T04:02:26.778Z,9.60
2022-09-23T04:04:53.603Z,11.37
2022-09-23T04:07:20.443Z,12.10
2022-09-23T04:09:47.338Z,13.17
2022-09-23T04:12:16.098Z,9.70
2022-09-23T04:14:43.635Z,10.87
2022-09-23T04:17:11.859Z,10.13
2022-09-23T04:19:38.973Z,10.83
2022-09-23T04:22:06.616Z,9.57
2022-09-23T04:24:33.585Z,11.43
2022-09-23T04:27:00.727Z,12.97
2022-09-23T04:29:27.657Z,9.50
2022-09-23T04:31:55.007Z,11.10
2022-09-23T04:34:21.965Z,11.50
2022-09-23T04:36:49.381Z,10.57
2022-09-23T04:39:17.158Z,11.93
2022-09-23T04:41:45.418Z,10.97
2022-09-23T04:44:13.292Z,13.03
2022-09-23T04:46:41.886Z,10.27
2022-09-23T04:49:08.815Z,11.77
2022-09-23T04:51:35.683Z,12.33
2022-09-23T04:54:02.651Z,10.00
2022-09-23T04:56:33.778Z,11.17
2022-09-23T04:59:01.937Z,10.77
2022-09-23T05:01:31.896Z,11.23
2022-09-23T05:04:03.738Z,11.80
2022-09-23T05:06:31.682Z,11.40
2022-09-23T05:08:59.575Z,13.03
2022-09-23T05:11:27.243Z,11.87
2022-09-23T05:13:55.044Z,13.33
2022-09-23T05:16:23.614Z,13.07
2022-09-23T05:18:52.512Z,10.50
2022-09-23T05:21:21.863Z,10.33
2022-09-23T05:23:55.342Z,9.97
2022-09-23T05:26:25.480Z,11.97
2022-09-23T05:28:53.908Z,10.77
2022-09-23T05:31:26.757Z,13.83
2022-09-23T05:33:57.421Z,10.43
2022-09-23T05:36:25.787Z,13.30
2022-09-23T05:38:52.960Z,11.90
2022-09-23T05:41:23.037Z,13.70
2022-09-23T05:43:54.092Z,14.03
2022-09-23T05:46:23.262Z,11.13
2022-09-23T05:48:50.625Z,11.93
2022-09-23T05:51:22.459Z,10.40
2022-09-23T05:53:52.847Z,13.27
2022-09-23T05:56:22.721Z,11.33
2022-09-23T05:58:53.825Z,8.93
2022-09-23T06:01:24.890Z,10.43
2022-09-23T06:03:53.481Z,13.27
2022-09-23T06:06:26.385Z,10.27
2022-09-23T06:08:53.267Z,10.23
2022-09-23T06:11:21.526Z,10.50
2022-09-23T06:13:49.618Z,9.17
2022-09-23T06:16:16.662Z,12.83
2022-09-23T06:18:45.305Z,11.77
2022-09-23T06:21:14.834Z,14.07
2022-09-23T06:23:42.964Z,9.57
2022-09-23T06:26:11.929Z,10.67
2022-09-23T06:28:40.988Z,9.90
2022-09-23T06:31:13.537Z,10.40
2022-09-23T06:33:42.474Z,9.27
2022-09-23T06:36:09.667Z,9.90
2022-09-23T06:38:44.242Z,12.13
2022-09-23T06:41:12.486Z,11.87
2022-09-23T06:43:39.416Z,10.87
2022-09-23T06:46:08.049Z,9.17
2022-09-23T06:48:35.468Z,9.77
2022-09-23T06:51:05.109Z,10.00
2022-09-23T06:53:41.778Z,9.77
2022-09-23T06:56:11.416Z,11.07
2022-09-23T06:58:39.244Z,12.13
2022-09-23T07:01:11.508Z,10.83
2022-09-23T07:03:39.378Z,11.33
2022-09-23T07:06:06.844Z,10.17
2022-09-23T07:08:34.853Z,9.17
2022-09-23T07:11:07.241Z,10.80
2022-09-23T07:13:34.734Z,13.03
2022-09-23T07:16:02.436Z,10.90
2022-09-23T07:18:37.003Z,11.53
2022-09-23T07:21:08.928Z,9.70
2022-09-23T07:23:37.875Z,11.33
2022-09-23T07:26:05.450Z,9.70
2022-09-23T07:28:32.545Z,9.83
2022-09-23T07:31:07.796Z,9.03
2022-09-23T07:33:36.972Z,12.03
2022-09-23T07:36:09.192Z,11.10
2022-09-23T07:38:37.411Z,8.67
2022-09-23T07:41:09.262Z,13.77
2022-09-23T07:43:37.270Z,10.43
2022-09-23T07:46:08.370Z,10.07
2022-09-23T07:48:36.091Z,11.03
2022-09-23T07:51:22.174Z,10.47
2022-09-23T07:53:51.456Z,9.67
2022-09-23T07:56:20.198Z,8.43
2022-09-23T07:59:00.463Z,10.13
2022-09-23T08:01:36.193Z,11.60
2022-09-23T08:04:07.285Z,11.60
2022-09-23T08:06:34.765Z,9.53
2022-09-23T08:09:01.899Z,10.00
2022-09-23T08:11:28.988Z,12.33
2022-09-23T08:13:56.338Z,11.37
2022-09-23T08:16:23.107Z,7.80
2022-09-23T08:18:50.134Z,8.67
2022-09-23T08:21:21.273Z,11.40
2022-09-23T08:23:49.268Z,9.83
2022-09-23T08:26:20.850Z,8.30
2022-09-23T08:28:48.217Z,10.70
2022-09-23T08:31:15.217Z,8.40
2022-09-23T08:33:42.126Z,13.27
2022-09-23T08:36:08.946Z,8.50
2022-09-23T08:38:36.001Z,8.60
2022-09-23T08:41:29.266Z,11.73
2022-09-23T08:44:01.975Z,8.77
2022-09-23T08:46:35.435Z,9.33
2022-09-23T08:49:02.509Z,12.03
2022-09-23T08:51:35.814Z,10.43
2022-09-23T08:54:02.954Z,9.40
2022-09-23T08:56:31.126Z,10.13
2022-09-23T08:59:07.658Z,9.30
2022-09-23T09:01:37.210Z,9.27
2022-09-23T09:04:21.773Z,9.77
2022-09-23T09:07:12.374Z,8.20
2022-09-23T09:09:58.650Z,9.53
2022-09-23T09:12:34.210Z,8.93
2022-09-23T09:15:09.189Z,9.23
2022-09-23T09:17:48.427Z,9.63
2022-09-23T09:20:16.921Z,9.43
2022-09-23T09:23:00.689Z,9.80
2022-09-23T09:25:40.170Z,9.83
2022-09-23T09:28:33.974Z,10.67
2022-09-23T09:31:02.982Z,9.50
2022-09-23T09:33:47.212Z,8.83
2022-09-23T09:36:44.537Z,8.33
2022-09-23T09:39:13.670Z,12.67
2022-09-23T09:41:50.070Z,10.93
2022-09-23T09:44:27.077Z,8.50
2022-09-23T09:47:22.258Z,10.30
2022-09-23T09:49:58.985Z,9.67
2022-09-23T09:52:29.029Z,10.73
2022-09-23T09:55:13.689Z,10.30
2022-09-23T09:57:44.283Z,10.53
2022-09-23T10:00:34.838Z,10.70
2022-09-23T10:03:13.596Z,11.27
2022-09-23T10:05:45.953Z,16.50
2022-09-23T10:08:18.846Z,10.10
2022-09-23T10:11:15.407Z,8.33
2022-09-23T10:14:09.646Z,9.73
2022-09-23T10:16:37.211Z,10.60
2022-09-23T10:19:15.994Z,9.70
2022-09-23T10:21:43.270Z,10.53
2022-09-23T10:24:23.565Z,11.27
2022-09-23T10:27:01.703Z,10.30
2022-09-23T10:29:33.861Z,14.40
2022-09-23T10:32:28.200Z,10.80
2022-09-23T10:35:02.056Z,11.53
2022-09-23T10:37:40.169Z,12.97
2022-09-23T10:40:38.278Z,11.40
2022-09-23T10:44:01.607Z,11.43
2022-09-23T10:46:46.421Z,13.40
2022-09-23T10:49:31.863Z,11.50
2022-09-23T10:52:22.584Z,11.63
2022-09-23T10:54:49.339Z,10.60
2022-09-23T10:57:43.526Z,11.10
2022-09-23T11:00:22.360Z,10.83
2022-09-23T11:03:19.198Z,12.63
2022-09-23T11:06:06.768Z,11.73
2022-09-23T11:08:54.906Z,13.70
2022-09-23T11:11:47.317Z,10.73
2022-09-23T11:14:39.344Z,13.43
2022-09-23T11:17:36.686Z,13.57
2022-09-23T11:20:18.541Z,12.67
2022-09-23T11:23:20.236Z,15.43
2022-09-23T11:25:56.979Z,12.80
2022-09-23T11:29:06.289Z,11.47
2022-09-23T11:32:17.939Z,12.33
2022-09-23T11:35:11.809Z,10.77
2022-09-23T11:37:45.253Z,13.27
2022-09-23T11:40:15.637Z,12.40
2022-09-23T11:42:55.126Z,11.57
2022-09-23T11:45:29.090Z,12.00
2022-09-23T11:48:09.198Z,9.57
2022-09-23T11:50:47.095Z,12.20
2022-09-23T11:53:46.254Z,12.10
2022-09-23T11:56:35.565Z,12.83
2022-09-23T11:59:39.227Z,15.47
2022-09-23T12:02:22.919Z,15.20
2022-09-23T12:05:06.939Z,15.60
2022-09-23T12:07:59.614Z,13.13
2022-09-23T12:10:54.004Z,11.87
2022-09-23T12:13:40.735Z,13.77
2022-09-23T12:16:43.156Z,11.80
2022-09-23T12:19:47.381Z,24.13
2022-09-23T12:22:14.792Z,13.33
2022-09-23T12:25:10.371Z,15.30
2022-09-23T12:27:39.746Z,13.47
2022-09-23T12:30:15.037Z,17.07
2022-09-23T12:32:42.642Z,14.80
2022-09-23T12:35:37.966Z,10.67
2022-09-23T12:38:13.799Z,14.87
2022-09-23T12:40:44.724Z,11.03
2022-09-23T12:43:20.701Z,15.87
2022-09-23T12:45:48.141Z,14.03
2022-09-23T12:48:17.738Z,14.40
2022-09-23T12:50:58.898Z,12.03
2022-09-23T12:53:34.960Z,12.23
2022-09-23T12:56:34.109Z,12.37
2022-09-23T12:59:23.488Z,13.33
2022-09-23T13:01:51.373Z,14.20
2022-09-23T13:05:16.215Z,13.17
2022-09-23T13:07:47.649Z,14.47
2022-09-23T13:10:25.908Z,14.47
2022-09-23T13:12:54.219Z,14.77
2022-09-23T13:15:34.011Z,12.87
2022-09-23T13:18:19.558Z,13.53
2022-09-23T13:20:48.391Z,15.07
2022-09-23T13:23:30.597Z,13.43
2022-09-23T13:26:00.949Z,14.40
2022-09-23T13:28:34.594Z,13.80
2022-09-23T13:31:15.076Z,15.70
2022-09-23T13:33:49.245Z,10.97
2022-09-23T13:36:18.385Z,15.30
2022-09-23T13:38:48.734Z,12.70
2022-09-23T13:41:24.455Z,13.17
2022-09-23T13:44:00.684Z,14.07
2022-09-23T13:46:32.234Z,13.03
2022-09-23T13:48:59.189Z,14.77
2022-09-23T13:51:33.343Z,15.97
2022-09-23T13:54:02.306Z,14.90
2022-09-23T13:56:33.020Z,16.23
2022-09-23T13:59:27.613Z,17.20
2022-09-23T14:02:06.839Z,13.80
2022-09-23T14:04:34.227Z,15.20
2022-09-23T14:07:02.135Z,16.20
2022-09-23T14:09:30.565Z,14.47
2022-09-23T14:12:00.859Z,15.20
2022-09-23T14:14:30.553Z,15.87
2022-09-23T14:16:58.897Z,16.43
2022-09-23T14:19:26.622Z,19.27
2022-09-23T14:21:55.147Z,18.70
2022-09-23T14:24:30.973Z,17.80
2022-09-23T14:27:06.610Z,16.93
2022-09-23T14:29:39.742Z,17.03
2022-09-23T14:32:21.076Z,18.83
2022-09-23T14:35:00.441Z,17.17
2022-09-23T14:37:55.037Z,19.23
2022-09-23T14:40:25.589Z,18.10
2022-09-23T14:43:04.487Z,16.17
2022-09-23T14:45:37.615Z,18.50
2022-09-23T14:48:10.017Z,20.17
2022-09-23T14:50:37.961Z,20.03
2022-09-23T14:53:26.075Z,20.37
2022-09-23T14:56:07.236Z,18.00
2022-09-23T14:58:52.934Z,17.77
2022-09-23T15:01:32.465Z,23.67
2022-09-23T15:04:09.424Z,23.40
2022-09-23T15:06:38.277Z,23.30
2022-09-23T15:09:09.410Z,21.63
2022-09-23T15:11:36.330Z,20.07
2022-09-23T15:14:26.309Z,23.13
2022-09-23T15:16:53.453Z,20.37
2022-09-23T15:19:22.323Z,20.73
2022-09-23T15:21:53.237Z,16.97
2022-09-23T15:24:36.156Z,18.07
2022-09-23T15:27:03.258Z,16.50
2022-09-23T15:29:33.015Z,16.57
2022-09-23T15:32:00.664Z,15.47
2022-09-23T15:34:27.675Z,15.57
2022-09-23T15:36:54.433Z,19.73
2022-09-23T15:39:21.471Z,15.17
2022-09-23T15:41:48.279Z,15.77
2022-09-23T15:44:18.580Z,14.17
2022-09-23T15:46:46.958Z,15.80
2022-09-23T15:49:28.535Z,16.50
2022-09-23T15:51:59.822Z,18.07
2022-09-23T15:54:31.392Z,17.27
2022-09-23T15:56:58.610Z,17.47
2022-09-23T15:59:25.345Z,16.53
2022-09-23T16:01:53.634Z,22.47
2022-09-23T16:04:21.850Z,16.43
2022-09-23T16:06:48.614Z,18.60
2022-09-23T16:09:16.145Z,18.53
2022-09-23T16:11:48.569Z,16.37
2022-09-23T16:14:17.379Z,16.40
2022-09-23T16:16:47.069Z,17.80
2022-09-23T16:19:17.810Z,17.50
2022-09-23T16:21:45.248Z,21.50
2022-09-23T16:24:18.009Z,17.57
2022-09-23T16:26:47.511Z,16.90
2022-09-23T16:29:15.026Z,16.37
2022-09-23T16:31:42.129Z,18.20
2022-09-23T16:34:09.678Z,16.30
2022-09-23T16:36:42.105Z,13.43
2022-09-23T16:39:12.384Z,15.43
2022-09-23T16:41:39.915Z,18.60
2022-09-23T16:44:09.437Z,16.70
2022-09-23T16:46:36.919Z,17.23
2022-09-23T16:49:03.979Z,17.20
2022-09-23T16:51:38.543Z,17.30
2022-09-23T16:54:12.732Z,14.87
2022-09-23T16:56:45.225Z,15.87
2022-09-23T16:59:13.469Z,19.17
2022-09-23T17:01:59.476Z,18.93
2022-09-23T17:04:27.820Z,19.33
2022-09-23T17:06:56.035Z,19.37
2022-09-23T17:09:26.571Z,19.83
2022-09-23T17:12:20.204Z,18.33
2022-09-23T17:14:47.133Z,16.60
2022-09-23T17:17:14.025Z,15.43
2022-09-23T17:19:41.625Z,17.63
2022-09-23T17:22:08.554Z,16.00
2022-09-23T17:24:35.499Z,14.33
2022-09-23T17:27:03.091Z,17.07
2022-09-23T17:29:30.524Z,16.37
2022-09-23T17:31:58.102Z,16.77
2022-09-23T17:34:25.211Z,13.80
2022-09-23T17:36:52.365Z,17.00
2022-09-23T17:39:19.455Z,14.10
2022-09-23T17:41:46.379Z,17.67
2022-09-23T17:44:14.257Z,13.13
2022-09-23T17:46:41.040Z,14.53
2022-09-23T17:49:08.529Z,17.87
2022-09-23T17:51:35.534Z,16.17
2022-09-23T17:54:02.476Z,14.70
2022-09-23T17:56:32.884Z,15.37
2022-09-23T17:59:02.117Z,13.43
2022-09-23T18:01:30.251Z,15.53
2022-09-23T18:03:59.825Z,18.43
2022-09-23T18:06:31.994Z,16.73
2022-09-23T18:09:07.531Z,17.73
2022-09-23T18:11:37.622Z,17.87
2022-09-23T18:14:07.675Z,17.07
2022-09-23T18:16:36.848Z,14.70
2022-09-23T18:19:04.937Z,17.93
2022-09-23T18:21:35.049Z,18.67
2022-09-23T18:24:28.057Z,15.60
2022-09-23T18:26:49.991Z,17.20
2022-09-23T18:29:17.042Z,15.93
2022-09-23T18:31:45.082Z,14.93
2022-09-23T18:34:16.954Z,16.67
2022-09-23T18:36:44.668Z,19.00
2022-09-23T18:39:11.803Z,14.90
2022-09-23T18:41:38.825Z,13.07
2022-09-23T18:44:05.869Z,14.13
2022-09-23T18:46:32.753Z,14.80
2022-09-23T18:49:18.548Z,13.73
2022-09-23T18:51:56.146Z,14.70
2022-09-23T18:54:24.987Z,15.23
2022-09-23T18:56:52.858Z,15.70
2022-09-23T18:59:23.968Z,14.23
2022-09-23T19:01:51.916Z,13.40
2022-09-23T19:04:20.595Z,16.47
2022-09-23T19:06:48.032Z,18.80
2022-09-23T19:09:15.651Z,15.27
2022-09-23T19:11:42.958Z,13.30
2022-09-23T19:14:11.632Z,16.50
2022-09-23T19:16:40.433Z,14.60
2022-09-23T19:19:08.020Z,16.57
2022-09-23T19:21:34.900Z,15.20
2022-09-23T19:24:05.168Z,14.17
2022-09-23T19:26:36.735Z,14.50
2022-09-23T19:29:05.535Z,14.03
2022-09-23T19:31:35.320Z,12.93
2022-09-23T19:34:10.857Z,13.47
2022-09-23T19:36:39.618Z,13.77
2022-09-23T19:39:09.053Z,13.10
2022-09-23T19:41:36.041Z,13.87
2022-09-23T19:44:03.959Z,17.43
2022-09-23T19:46:32.539Z,15.30
2022-09-23T19:49:00.694Z,18.83
2022-09-23T19:51:28.416Z,13.37
2022-09-23T19:53:55.180Z,14.80
2022-09-23T19:56:22.304Z,16.73
2022-09-23T19:58:52.432Z,14.63
2022-09-23T20:01:19.789Z,16.07
2022-09-23T20:03:47.605Z,13.83
2022-09-23T20:06:15.747Z,16.57
2022-09-23T20:08:43.607Z,16.47
2022-09-23T20:11:19.661Z,18.80
2022-09-23T20:13:47.657Z,14.47
2022-09-23T20:16:19.947Z,12.40
2022-09-23T20:18:47.215Z,15.50
2022-09-23T20:21:15.619Z,13.73
2022-09-23T20:23:43.968Z,15.07
2022-09-23T20:26:29.562Z,16.17
2022-09-23T20:28:56.767Z,18.93
2022-09-23T20:31:23.934Z,17.43
2022-09-23T20:33:53.748Z,16.00
2022-09-23T20:36:20.740Z,15.93
2022-09-23T20:38:47.532Z,15.50
2022-09-23T20:41:15.486Z,12.80
2022-09-23T20:43:42.617Z,13.43
2022-09-23T20:46:09.678Z,16.27
2022-09-23T20:48:36.597Z,14.97
2022-09-23T20:51:05.881Z,19.63
2022-09-23T20:53:33.058Z,19.90
2022-09-23T20:56:00.380Z,21.87
2022-09-23T20:58:32.925Z,16.50
2022-09-23T21:01:04.538Z,12.40
2022-09-23T21:03:32.793Z,15.83
2022-09-23T21:06:01.936Z,15.47
2022-09-23T21:08:29.134Z,16.60
2022-09-23T21:10:59.911Z,17.13
2022-09-23T21:13:27.079Z,15.77
2022-09-23T21:15:54.055Z,13.80
2022-09-23T21:18:22.644Z,17.03
2022-09-23T21:20:59.839Z,17.37
2022-09-23T21:23:27.431Z,17.53
2022-09-23T21:26:06.855Z,16.30
2022-09-23T21:28:35.512Z,12.80
2022-09-23T21:31:08.012Z,13.27
2022-09-23T21:33:37.499Z,14.60
2022-09-23T21:36:06.398Z,12.47
2022-09-23T21:38:37.349Z,15.03
2022-09-23T21:41:10.140Z,14.43
2022-09-23T21:43:39.299Z,15.20
2022-09-23T21:46:20.097Z,16.80
2022-09-23T21:48:49.910Z,17.53
2022-09-23T21:51:19.945Z,13.63
2022-09-23T21:53:47.422Z,16.23
2022-09-23T21:56:20.720Z,17.03
2022-09-23T21:58:49.130Z,16.43
2022-09-23T22:01:24.898Z,13.17
2022-09-23T22:03:54.357Z,14.57
2022-09-23T22:06:24.554Z,14.10
2022-09-23T22:08:59.215Z,13.43
2022-09-23T22:11:47.510Z,13.07
2022-09-23T22:14:16.225Z,14.63
2022-09-23T22:16:43.850Z,13.70
2022-09-23T22:19:12.599Z,15.63
2022-09-23T22:21:42.149Z,14.87
2022-09-23T22:24:11.007Z,15.07
2022-09-23T22:26:40.768Z,15.13
2022-09-23T22:29:28.974Z,15.43
2022-09-23T22:32:14.666Z,15.30
2022-09-23T22:34:52.158Z,16.47
2022-09-23T22:37:28.016Z,15.37
2022-09-23T22:39:57.419Z,16.60
2022-09-23T22:42:24.479Z,14.50
2022-09-23T22:44:51.689Z,16.57
2022-09-23T22:47:20.307Z,16.90
2022-09-23T22:49:48.097Z,15.43
2022-09-23T22:52:16.182Z,16.00
2022-09-23T22:54:43.467Z,15.53
2022-09-23T22:57:10.544Z,15.80
2022-09-23T22:59:37.594Z,15.97
2022-09-23T23:02:06.743Z,14.40
2022-09-23T23:04:33.893Z,15.20
2022-09-23T23:07:00.757Z,16.73
2022-09-23T23:09:27.570Z,16.97
2022-09-23T23:11:54.459Z,15.23
2022-09-23T23:14:21.525Z,17.77
2022-09-23T23:16:48.595Z,14.80
2022-09-23T23:19:17.627Z,15.87
2022-09-23T23:21:45.255Z,15.00
2022-09-23T23:24:20.824Z,17.60
2022-09-23T23:26:48.621Z,16.10
2022-09-23T23:29:18.325Z,16.73
2022-09-23T23:31:45.386Z,15.40
2022-09-23T23:34:14.887Z,17.23
2022-09-23T23:36:43.673Z,14.30
2022-09-23T23:39:11.529Z,16.37
2022-09-23T23:41:42.485Z,15.87
2022-09-23T23:44:11.898Z,16.70
2022-09-23T23:46:38.785Z,16.53
2022-09-23T23:49:06.815Z,15.97
2022-09-23T23:51:33.746Z,17.83
2022-09-23T23:54:00.913Z,14.27
2022-09-23T23:56:30.474Z,14.07
2022-09-23T23:59:00.892Z,18.67
